createdAt,value
2023-04-18T00:02:07.612Z,1.00
2023-04-18T00:07:17.915Z,1.08
2023-04-18T00:12:23.249Z,1.33
2023-04-18T00:17:29.342Z,1.42
2023-04-18T00:22:34.803Z,1.23
2023-04-18T00:27:40.671Z,1.40
2023-04-18T00:32:46.248Z,1.10
2023-04-18T00:37:52.418Z,1.92
2023-04-18T00:42:57.761Z,0.50
2023-04-18T00:48:03.112Z,0.80
2023-04-18T00:53:11.244Z,1.42
2023-04-18T00:58:17.106Z,1.05
2023-04-18T01:03:23.623Z,1.23
2023-04-18T01:08:29.184Z,1.65
2023-04-18T01:13:36.789Z,1.50
2023-04-18T01:18:42.104Z,0.65
2023-04-18T01:23:49.118Z,2.08
2023-04-18T01:28:54.694Z,0.60
2023-04-18T01:34:01.390Z,0.82
2023-04-18T01:39:07.278Z,1.17
2023-04-18T01:44:13.000Z,0.90
2023-04-18T01:49:18.972Z,1.23
2023-04-18T01:54:24.483Z,1.33
2023-04-18T01:59:31.206Z,1.23
2023-04-18T02:04:36.698Z,1.30
2023-04-18T02:09:42.369Z,1.27
2023-04-18T02:14:55.432Z,0.30
2023-04-18T02:20:01.236Z,0.45
2023-04-18T02:30:14.856Z,1.25
2023-04-18T02:35:21.580Z,1.80
2023-04-18T02:40:27.101Z,2.25
2023-04-18T02:45:33.475Z,1.20
2023-04-18T02:50:39.416Z,1.67
2023-04-18T02:55:45.048Z,1.88
2023-04-18T03:00:53.309Z,1.98
2023-04-18T03:06:25.178Z,2.83
2023-04-18T03:11:31.478Z,1.08
2023-04-18T03:16:37.582Z,2.38
2023-04-18T03:21:45.282Z,2.10
2023-04-18T03:26:51.176Z,1.73
2023-04-18T03:32:02.018Z,2.83
2023-04-18T03:37:08.806Z,2.65
2023-04-18T03:42:21.906Z,2.00
2023-04-18T03:47:27.388Z,3.47
2023-04-18T03:52:38.536Z,2.47
2023-04-18T03:57:43.780Z,1.00
2023-04-18T04:02:55.348Z,2.17
2023-04-18T04:08:01.290Z,2.92
2023-04-18T04:13:05.503Z,1.40
2023-04-18T04:18:17.364Z,1.02
2023-04-18T04:23:23.409Z,2.33
2023-04-18T04:28:29.425Z,2.80
2023-04-18T04:33:41.550Z,3.83
2023-04-18T04:38:55.906Z,2.30
2023-04-18T04:44:10.545Z,3.55
2023-04-18T04:49:16.888Z,2.83
2023-04-18T04:54:21.594Z,4.07
2023-04-18T04:59:26.559Z,4.60
2023-04-18T05:04:31.591Z,4.05
2023-04-18T05:09:39.808Z,5.57
2023-04-18T05:19:56.281Z,5.00
2023-04-18T05:25:02.913Z,4.35
2023-04-18T05:30:10.218Z,4.60
2023-04-18T05:41:05.793Z,6.32
2023-04-18T05:46:20.498Z,5.47
2023-04-18T05:51:29.259Z,5.25
2023-04-18T05:56:40.009Z,5.63
2023-04-18T06:07:34.359Z,1.45
2023-04-18T06:12:41.160Z,1.42
2023-04-18T06:17:48.786Z,1.80
2023-04-18T06:22:52.958Z,1.60
2023-04-18T06:27:57.812Z,1.80
2023-04-18T06:33:02.576Z,1.55
2023-04-18T06:38:08.536Z,1.45
2023-04-18T06:43:12.795Z,1.45
2023-04-18T06:48:17.011Z,1.60
2023-04-18T06:53:21.133Z,1.15
2023-04-18T06:58:25.209Z,1.42
2023-04-18T07:03:29.602Z,0.88
2023-04-18T07:08:35.554Z,0.47
2023-04-18T07:13:39.852Z,1.02
2023-04-18T07:18:43.977Z,1.15
2023-04-18T07:23:48.350Z,0.30
2023-04-18T07:28:52.582Z,0.40
2023-04-18T07:33:56.945Z,0.60
2023-04-18T07:39:02.357Z,0.60
2023-04-18T07:44:06.524Z,0.40
2023-04-18T07:49:10.673Z,0.40
2023-04-18T07:54:14.876Z,0.60
2023-04-18T07:59:18.964Z,0.68
2023-04-18T08:04:23.292Z,1.27
2023-04-18T08:09:27.685Z,0.50
2023-04-18T08:14:31.771Z,1.30
2023-04-18T08:19:35.922Z,0.60
2023-04-18T08:24:42.930Z,1.58
2023-04-18T08:29:52.884Z,0.65
2023-04-18T08:34:56.996Z,0.40
2023-04-18T08:40:01.179Z,1.55
2023-04-18T08:45:09.733Z,1.63
2023-04-18T08:50:13.910Z,0.77
2023-04-18T08:55:19.554Z,0.57
2023-04-18T09:00:24.524Z,1.65
2023-04-18T09:05:28.956Z,0.70
2023-04-18T09:10:34.904Z,1.60
2023-04-18T09:15:38.972Z,1.27
2023-04-18T09:20:43.146Z,1.33
2023-04-18T09:25:48.972Z,0.95
2023-04-18T09:30:53.631Z,1.45
2023-04-18T09:36:17.326Z,1.58
2023-04-18T09:41:23.036Z,1.73
2023-04-18T09:46:28.466Z,0.63
2023-04-18T09:51:33.879Z,0.57
2023-04-18T09:56:42.061Z,1.23
2023-04-18T10:01:48.841Z,1.35
2023-04-18T10:06:55.038Z,0.75
2023-04-18T10:12:00.350Z,1.35
2023-04-18T10:17:04.623Z,1.33
2023-04-18T10:22:08.726Z,1.50
2023-04-18T10:27:12.844Z,1.30
2023-04-18T10:32:22.949Z,1.45
2023-04-18T10:37:27.673Z,1.38
2023-04-18T10:42:53.449Z,0.80
2023-04-18T10:53:19.811Z,1.30
2023-04-18T10:58:24.013Z,1.27
2023-04-18T11:03:35.689Z,1.50
2023-04-18T11:08:40.141Z,1.55
2023-04-18T11:14:00.348Z,1.60
2023-04-18T11:19:22.069Z,1.35
2023-04-18T11:24:26.400Z,0.77
2023-04-18T11:29:30.931Z,1.63
2023-04-18T11:34:36.574Z,1.58
2023-04-18T11:39:45.128Z,1.65
2023-04-18T11:44:49.878Z,1.67
2023-04-18T11:50:02.424Z,1.70
2023-04-18T11:55:21.693Z,1.75
2023-04-18T12:00:44.926Z,1.58
2023-04-18T12:05:49.578Z,1.40
2023-04-18T12:10:55.922Z,1.75
2023-04-18T12:16:03.205Z,1.40
2023-04-18T12:21:07.427Z,0.50
2023-04-18T12:26:18.864Z,2.47
2023-04-18T12:31:23.031Z,1.38
2023-04-18T12:36:29.018Z,1.55
2023-04-18T12:41:33.111Z,1.70
2023-04-18T12:46:37.349Z,1.63
2023-04-18T12:51:41.560Z,2.35
2023-04-18T12:56:46.964Z,1.38
2023-04-18T13:01:51.114Z,1.33
2023-04-18T13:06:55.500Z,1.52
2023-04-18T13:11:59.531Z,1.98
2023-04-18T13:17:03.762Z,1.70
2023-04-18T13:22:08.047Z,1.73
2023-04-18T13:27:12.449Z,1.58
2023-04-18T13:32:16.683Z,1.60
2023-04-18T13:37:20.724Z,1.73
2023-04-18T13:42:24.807Z,1.83
2023-04-18T13:47:28.952Z,1.10
2023-04-18T13:52:35.540Z,1.52
2023-04-18T13:57:45.202Z,1.60
2023-04-18T14:02:56.454Z,2.20
2023-04-18T14:08:09.460Z,1.38
2023-04-18T14:13:18.696Z,2.05
2023-04-18T14:18:26.065Z,0.63
2023-04-18T14:23:30.852Z,1.88
2023-04-18T14:28:38.381Z,2.28
2023-04-18T14:33:51.120Z,0.85
2023-04-18T14:38:57.930Z,1.45
2023-04-18T14:44:06.321Z,1.35
2023-04-18T14:49:12.528Z,0.47
2023-04-18T14:54:17.208Z,1.10
2023-04-18T14:59:29.054Z,0.60
2023-04-18T15:04:44.925Z,0.85
2023-04-18T15:15:05.378Z,0.43
2023-04-18T15:20:13.016Z,1.48
2023-04-18T15:25:18.689Z,0.80
2023-04-18T15:30:25.032Z,0.85
2023-04-18T15:35:31.150Z,3.45
2023-04-18T15:40:36.800Z,5.22
2023-04-18T15:45:41.418Z,3.58
2023-04-18T15:50:51.476Z,2.90
2023-04-18T15:55:55.654Z,3.30
2023-04-18T16:01:01.131Z,1.58
2023-04-18T16:06:06.582Z,1.88
2023-04-18T16:11:13.897Z,1.25
2023-04-18T16:16:19.373Z,0.60
2023-04-18T16:21:25.151Z,1.63
2023-04-18T16:26:29.488Z,1.67
2023-04-18T16:31:34.620Z,1.05
2023-04-18T16:36:38.857Z,1.10
2023-04-18T16:41:45.088Z,1.73
2023-04-18T16:46:50.612Z,2.88
2023-04-18T16:51:56.971Z,0.82
2023-04-18T16:57:02.223Z,1.70
2023-04-18T17:02:07.976Z,2.70
2023-04-18T17:07:12.154Z,1.73
2023-04-18T17:12:16.523Z,1.02
2023-04-18T17:17:20.636Z,1.55
2023-04-18T17:22:24.917Z,1.33
2023-04-18T17:27:30.076Z,0.75
2023-04-18T17:32:35.745Z,1.17
2023-04-18T17:37:40.868Z,0.93
2023-04-18T17:42:45.108Z,1.73
2023-04-18T17:47:51.282Z,0.85
2023-04-18T17:52:55.441Z,0.45
2023-04-18T17:58:01.216Z,1.65
2023-04-18T18:03:05.878Z,0.50
2023-04-18T18:08:10.249Z,0.68
2023-04-18T18:13:14.590Z,1.85
2023-04-18T18:18:19.967Z,1.30
2023-04-18T18:23:25.815Z,1.15
2023-04-18T18:28:30.032Z,1.58
2023-04-18T18:33:34.090Z,1.63
2023-04-18T18:38:38.336Z,1.42
2023-04-18T18:43:43.379Z,2.17
2023-04-18T18:48:48.630Z,1.20
2023-04-18T18:53:53.622Z,1.20
2023-04-18T18:58:57.657Z,1.80
2023-04-18T19:04:03.541Z,1.70
2023-04-18T19:09:07.786Z,1.73
2023-04-18T19:14:13.129Z,1.65
2023-04-18T19:19:18.027Z,1.58
2023-04-18T19:24:23.165Z,1.27
2023-04-18T19:29:27.397Z,1.60
2023-04-18T19:34:31.516Z,1.30
2023-04-18T19:39:35.645Z,0.90
2023-04-18T19:44:41.502Z,1.52
2023-04-18T19:49:47.296Z,1.70
2023-04-18T19:54:53.626Z,1.42
2023-04-18T19:59:58.995Z,1.20
2023-04-18T20:05:05.416Z,1.33
2023-04-18T20:10:11.911Z,1.52
2023-04-18T20:15:17.516Z,2.05
2023-04-18T20:20:23.031Z,1.42
2023-04-18T20:25:28.075Z,3.05
2023-04-18T20:30:32.134Z,1.85
2023-04-18T20:35:38.442Z,2.03
2023-04-18T20:40:45.369Z,1.45
2023-04-18T20:45:55.455Z,1.27
2023-04-18T20:51:00.867Z,2.67
2023-04-18T20:56:06.958Z,1.58
2023-04-18T21:01:12.459Z,2.35
2023-04-18T21:06:19.624Z,1.25
2023-04-18T21:11:24.822Z,1.55
2023-04-18T21:16:29.117Z,1.65
2023-04-18T21:21:34.728Z,1.83
2023-04-18T21:26:39.876Z,2.03
2023-04-18T21:31:45.897Z,1.55
2023-04-18T21:36:51.285Z,1.60
2023-04-18T21:41:56.323Z,1.35
2023-04-18T21:47:01.312Z,0.90
2023-04-18T21:52:06.743Z,1.38
2023-04-18T21:57:11.730Z,1.00
2023-04-18T22:02:17.559Z,1.33
2023-04-18T22:07:25.128Z,1.35
2023-04-18T22:12:29.394Z,1.60
2023-04-18T22:17:35.649Z,1.45
2023-04-18T22:22:41.058Z,1.40
2023-04-18T22:27:45.752Z,0.50
2023-04-18T22:32:50.714Z,1.88
2023-04-18T22:37:56.928Z,1.42
2023-04-18T22:43:02.108Z,1.38
2023-04-18T22:48:12.493Z,1.77
2023-04-18T22:53:17.117Z,1.55
2023-04-18T22:58:22.418Z,1.42
2023-04-18T23:03:27.591Z,1.73
2023-04-18T23:08:32.128Z,2.00
2023-04-18T23:13:37.542Z,1.48
2023-04-18T23:18:41.675Z,1.23
2023-04-18T23:23:46.826Z,1.60
2023-04-18T23:28:52.888Z,1.38
2023-04-18T23:33:58.304Z,1.65
2023-04-18T23:39:04.714Z,1.33
2023-04-18T23:44:09.889Z,1.17
2023-04-18T23:49:15.471Z,1.55
2023-04-18T23:54:20.818Z,1.38
2023-04-18T23:59:25.918Z,1.38
